Back to Top

Language: 

My Weather Underground Personal Weather Station Historical Data with Graphs...

Delerius Weather Station Historical Data
Daily Summary for February 27, 2017 Units:  Both    English   Metric
« Previous Day
Next Day »
Daily Weekly Monthly Yearly Custom
  High: Low: Average:
Temperature: 44.4 °F /  6.9 °C 33.4 °F /  0.8 °C 40.8 °F /  4.9 °C
Dew Point: 41.7 °F /  5.4 °C 31.7 °F /  -0.2 °C 38.3 °F /  3.5 °C
Humidity: 94 % 84 % 91 %
Wind Speed: 12.0 mph /  19.3 km/h - 5.7 mph /  9.2 km/h
Wind Gust: 20.0 mph /  32.2 km/h - -
Wind:- - SW
Pressure: 29.38 in /  994.8 hPa 28.93 in /  979.6 hPa -
Precipitation: 0.09 in /  2.29 mm    
Historical Graphs
 
 
Tabular Data for February 27, 2017
Time Temperature Dew Point Pressure Wind Wind Speed Wind Gust Humidity Rainfall Rate (Hourly) solar Conditions
00:00 43.0 °F /  6.1 °C 39.7 °F /  4.3 °C 29.38 in /  994.8 hPa WSW 4.0 mph /  6.4 km/h 4.0 mph /  6.4 km/h 88 % 0.00 in /  0 mm 0 W/m2
00:05 42.8 °F /  6 °C 39.5 °F /  4.2 °C 29.37 in /  994.5 hPa WSW 2.0 mph /  3.2 km/h 4.0 mph /  6.4 km/h 88 % 0.00 in /  0 mm 0 W/m2
00:15 42.5 °F /  5.8 °C 39.2 °F /  4 °C 29.37 in /  994.5 hPa SW 1.0 mph /  1.6 km/h 2.0 mph /  3.2 km/h 88 % 0.00 in /  0 mm 0 W/m2
00:20 42.6 °F /  5.9 °C 39.6 °F /  4.2 °C 29.37 in /  994.5 hPa SW 3.0 mph /  4.8 km/h 3.0 mph /  4.8 km/h 89 % 0.00 in /  0 mm 0 W/m2
00:25 42.7 °F /  5.9 °C 39.7 °F /  4.3 °C 29.37 in /  994.5 hPa SW 5.0 mph /  8 km/h 5.0 mph /  8 km/h 89 % 0.00 in /  0 mm 0 W/m2
00:30 42.9 °F /  6.1 °C 40.2 °F /  4.6 °C 29.36 in /  994.1 hPa SW 7.0 mph /  11.3 km/h 7.0 mph /  11.3 km/h 90 % 0.00 in /  0 mm 0 W/m2
00:35 43.3 °F /  6.3 °C 40.3 °F /  4.6 °C 29.36 in /  994.1 hPa SW 8.0 mph /  12.9 km/h 8.0 mph /  12.9 km/h 89 % 0.00 in /  0 mm 0 W/m2
00:45 43.7 °F /  6.5 °C 40.1 °F /  4.5 °C 29.36 in /  994.1 hPa SW 9.0 mph /  14.5 km/h 11.0 mph /  17.7 km/h 87 % 0.00 in /  0 mm 0 W/m2
00:50 43.9 °F /  6.6 °C 40.3 °F /  4.6 °C 29.36 in /  994.1 hPa WSW 8.0 mph /  12.9 km/h 14.0 mph /  22.5 km/h 87 % 0.00 in /  0 mm 0 W/m2
00:55 44.0 °F /  6.7 °C 40.1 °F /  4.5 °C 29.35 in /  993.8 hPa SSW 9.0 mph /  14.5 km/h 14.0 mph /  22.5 km/h 86 % 0.00 in /  0 mm 0 W/m2
01:00 44.0 °F /  6.7 °C 40.1 °F /  4.5 °C 29.36 in /  994.1 hPa SSW 9.0 mph /  14.5 km/h 10.0 mph /  16.1 km/h 86 % 0.00 in /  0 mm 0 W/m2
01:05 44.1 °F /  6.7 °C 40.2 °F /  4.6 °C 29.36 in /  994.1 hPa SW 8.0 mph /  12.9 km/h 12.0 mph /  19.3 km/h 86 % 0.00 in /  0 mm 0 W/m2
01:10 44.0 °F /  6.7 °C 40.1 °F /  4.5 °C 29.36 in /  994.1 hPa SW 8.0 mph /  12.9 km/h 8.0 mph /  12.9 km/h 86 % 0.00 in /  0 mm 0 W/m2
01:20 44.0 °F /  6.7 °C 40.1 °F /  4.5 °C 29.36 in /  994.1 hPa SW 7.0 mph /  11.3 km/h 7.0 mph /  11.3 km/h 86 % 0.00 in /  0 mm 0 W/m2
01:25 43.9 °F /  6.6 °C 40.0 °F /  4.4 °C 29.35 in /  993.8 hPa SW 7.0 mph /  11.3 km/h 12.0 mph /  19.3 km/h 86 % 0.00 in /  0 mm 0 W/m2
01:30 44.0 °F /  6.7 °C 39.8 °F /  4.3 °C 29.35 in /  993.8 hPa SW 7.0 mph /  11.3 km/h 12.0 mph /  19.3 km/h 85 % 0.00 in /  0 mm 0 W/m2
01:35 44.1 °F /  6.7 °C 39.9 °F /  4.4 °C 29.35 in /  993.8 hPa SW 8.0 mph /  12.9 km/h 12.0 mph /  19.3 km/h 85 % 0.00 in /  0 mm 0 W/m2
01:45 44.1 °F /  6.7 °C 39.9 °F /  4.4 °C 29.35 in /  993.8 hPa SSW 10.0 mph /  16.1 km/h 12.0 mph /  19.3 km/h 85 % 0.00 in /  0 mm 0 W/m2
01:55 44.1 °F /  6.7 °C 39.6 °F /  4.2 °C 29.34 in /  993.5 hPa SSW 10.0 mph /  16.1 km/h 12.0 mph /  19.3 km/h 84 % 0.00 in /  0 mm 0 W/m2
02:00 44.1 °F /  6.7 °C 39.9 °F /  4.4 °C 29.34 in /  993.5 hPa SSW 10.0 mph /  16.1 km/h 10.0 mph /  16.1 km/h 85 % 0.00 in /  0 mm 0 W/m2
02:05 44.1 °F /  6.7 °C 39.9 °F /  4.4 °C 29.34 in /  993.5 hPa SW 10.0 mph /  16.1 km/h 11.0 mph /  17.7 km/h 85 % 0.00 in /  0 mm 0 W/m2
02:10 44.1 °F /  6.7 °C 39.9 °F /  4.4 °C 29.34 in /  993.5 hPa SW 9.0 mph /  14.5 km/h 9.0 mph /  14.5 km/h 85 % 0.00 in /  0 mm 0 W/m2
02:15 44.0 °F /  6.7 °C 39.8 °F /  4.3 °C 29.33 in /  993.1 hPa SSW 8.0 mph /  12.9 km/h 12.0 mph /  19.3 km/h 85 % 0.00 in /  0 mm 0 W/m2
02:25 43.9 °F /  6.6 °C 40.0 °F /  4.4 °C 29.33 in /  993.1 hPa SW 6.0 mph /  9.7 km/h 7.0 mph /  11.3 km/h 86 % 0.00 in /  0 mm 0 W/m2
02:30 43.9 °F /  6.6 °C 40.0 °F /  4.4 °C 29.33 in /  993.1 hPa South 7.0 mph /  11.3 km/h 12.0 mph /  19.3 km/h 86 % 0.00 in /  0 mm 0 W/m2
02:35 43.9 °F /  6.6 °C 40.0 °F /  4.4 °C 29.33 in /  993.1 hPa South 6.0 mph /  9.7 km/h 12.0 mph /  19.3 km/h 86 % 0.00 in /  0 mm 0 W/m2
02:40 43.8 °F /  6.6 °C 39.9 °F /  4.4 °C 29.33 in /  993.1 hPa SSW 6.0 mph /  9.7 km/h 6.0 mph /  9.7 km/h 86 % 0.00 in /  0 mm 0 W/m2
02:45 43.9 °F /  6.6 °C 40.0 °F /  4.4 °C 29.32 in /  992.8 hPa South 7.0 mph /  11.3 km/h 9.0 mph /  14.5 km/h 86 % 0.00 in /  0 mm 0 W/m2
02:50 43.9 °F /  6.6 °C 40.3 °F /  4.6 °C 29.32 in /  992.8 hPa SSW 7.0 mph /  11.3 km/h 7.0 mph /  11.3 km/h 87 % 0.00 in /  0 mm 0 W/m2
03:00 43.9 °F /  6.6 °C 40.3 °F /  4.6 °C 29.31 in /  992.4 hPa South 7.0 mph /  11.3 km/h 7.0 mph /  11.3 km/h 87 % 0.00 in /  0 mm 0 W/m2
03:05 43.9 °F /  6.6 °C 40.3 °F /  4.6 °C 29.31 in /  992.4 hPa SSE 7.0 mph /  11.3 km/h 12.0 mph /  19.3 km/h 87 % 0.00 in /  0 mm 0 W/m2
03:15 44.0 °F /  6.7 °C 40.4 °F /  4.7 °C 29.31 in /  992.4 hPa SSW 8.0 mph /  12.9 km/h 12.0 mph /  19.3 km/h 87 % 0.00 in /  0 mm 0 W/m2
03:20 44.0 °F /  6.7 °C 40.7 °F /  4.8 °C 29.30 in /  992.1 hPa South 7.0 mph /  11.3 km/h 7.0 mph /  11.3 km/h 88 % 0.00 in /  0 mm 0 W/m2
03:25 43.9 °F /  6.6 °C 40.6 °F /  4.8 °C 29.30 in /  992.1 hPa SSW 7.0 mph /  11.3 km/h 12.0 mph /  19.3 km/h 88 % 0.00 in /  0 mm 0 W/m2
03:30 43.7 °F /  6.5 °C 40.7 °F /  4.8 °C 29.30 in /  992.1 hPa South 5.0 mph /  8 km/h 5.0 mph /  8 km/h 89 % 0.00 in /  0 mm 0 W/m2
03:35 43.6 °F /  6.4 °C 40.6 °F /  4.8 °C 29.29 in /  991.8 hPa South 4.0 mph /  6.4 km/h 8.0 mph /  12.9 km/h 89 % 0.00 in /  0 mm 0 W/m2
03:40 43.5 °F /  6.4 °C 40.8 °F /  4.9 °C 29.29 in /  991.8 hPa South 6.0 mph /  9.7 km/h 12.0 mph /  19.3 km/h 90 % 0.00 in /  0 mm 0 W/m2
03:45 43.5 °F /  6.4 °C 40.8 °F /  4.9 °C 29.29 in /  991.8 hPa South 7.0 mph /  11.3 km/h 12.0 mph /  19.3 km/h 90 % 0.00 in /  0 mm 0 W/m2
03:50 43.5 °F /  6.4 °C 40.8 °F /  4.9 °C 29.29 in /  991.8 hPa South 8.0 mph /  12.9 km/h 8.0 mph /  12.9 km/h 90 % 0.00 in /  0 mm 0 W/m2
03:55 43.5 °F /  6.4 °C 40.8 °F /  4.9 °C 29.29 in /  991.8 hPa South 8.0 mph /  12.9 km/h 12.0 mph /  19.3 km/h 90 % 0.00 in /  0 mm 0 W/m2
04:05 43.3 °F /  6.3 °C 40.8 °F /  4.9 °C 29.28 in /  991.4 hPa SW 8.0 mph /  12.9 km/h 12.0 mph /  19.3 km/h 91 % 0.00 in /  0 mm 0 W/m2
04:10 43.2 °F /  6.2 °C 40.8 °F /  4.9 °C 29.28 in /  991.4 hPa SSW 7.0 mph /  11.3 km/h 7.0 mph /  11.3 km/h 91 % 0.00 in /  0 mm 0 W/m2
04:15 43.1 °F /  6.2 °C 40.7 °F /  4.8 °C 29.28 in /  991.4 hPa SW 6.0 mph /  9.7 km/h 12.0 mph /  19.3 km/h 91 % 0.00 in /  0 mm 0 W/m2
04:20 43.0 °F /  6.1 °C 40.8 °F /  4.9 °C 29.27 in /  991.1 hPa SSW 5.0 mph /  8 km/h 12.0 mph /  19.3 km/h 92 % 0.00 in /  0 mm 0 W/m2
04:30 42.9 °F /  6.1 °C 40.7 °F /  4.8 °C 29.27 in /  991.1 hPa South 7.0 mph /  11.3 km/h 12.0 mph /  19.3 km/h 92 % 0.00 in /  0 mm 0 W/m2
04:40 43.0 °F /  6.1 °C 40.8 °F /  4.9 °C 29.26 in /  990.7 hPa SSW 7.0 mph /  11.3 km/h 7.0 mph /  11.3 km/h 92 % 0.00 in /  0 mm 0 W/m2
04:45 42.9 °F /  6.1 °C 40.7 °F /  4.8 °C 29.25 in /  990.4 hPa SSE 6.0 mph /  9.7 km/h 11.0 mph /  17.7 km/h 92 % 0.00 in /  0 mm 0 W/m2
04:50 43.0 °F /  6.1 °C 40.8 °F /  4.9 °C 29.25 in /  990.4 hPa SSE 7.0 mph /  11.3 km/h 12.0 mph /  19.3 km/h 92 % 0.00 in /  0 mm 0 W/m2
04:55 43.0 °F /  6.1 °C 41.1 °F /  5.1 °C 29.25 in /  990.4 hPa SSW 8.0 mph /  12.9 km/h 12.0 mph /  19.3 km/h 93 % 0.00 in /  0 mm 0 W/m2
05:00 43.1 °F /  6.2 °C 41.2 °F /  5.1 °C 29.25 in /  990.4 hPa South 8.0 mph /  12.9 km/h 12.0 mph /  19.3 km/h 93 % 0.00 in /  0 mm 0 W/m2
05:05 43.1 °F /  6.2 °C 41.2 °F /  5.1 °C 29.25 in /  990.4 hPa SSW 9.0 mph /  14.5 km/h 12.0 mph /  19.3 km/h 93 % 0.00 in /  0 mm 0 W/m2
05:15 43.1 °F /  6.2 °C 40.9 °F /  4.9 °C 29.25 in /  990.4 hPa SSW 9.0 mph /  14.5 km/h 12.0 mph /  19.3 km/h 92 % 0.00 in /  0 mm 0 W/m2
05:20 43.0 °F /  6.1 °C 40.8 °F /  4.9 °C 29.24 in /  990.1 hPa SSW 8.0 mph /  12.9 km/h 8.0 mph /  12.9 km/h 92 % 0.07 in /  1.78 mm 0 W/m2
05:25 43.0 °F /  6.1 °C 40.8 °F /  4.9 °C 29.24 in /  990.1 hPa SSW 8.0 mph /  12.9 km/h 12.0 mph /  19.3 km/h 92 % 0.07 in /  1.78 mm 0 W/m2
05:30 43.0 °F /  6.1 °C 40.8 °F /  4.9 °C 29.24 in /  990.1 hPa SSW 9.0 mph /  14.5 km/h 9.0 mph /  14.5 km/h 92 % 0.05 in /  1.27 mm 0 W/m2
05:35 43.0 °F /  6.1 °C 41.1 °F /  5.1 °C 29.24 in /  990.1 hPa South 9.0 mph /  14.5 km/h 12.0 mph /  19.3 km/h 93 % 0.04 in /  1.02 mm 0 W/m2
05:45 42.9 °F /  6.1 °C 40.7 °F /  4.8 °C 29.23 in /  989.7 hPa South 9.0 mph /  14.5 km/h 9.0 mph /  14.5 km/h 92 % 0.00 in /  0 mm 0 W/m2
05:55 42.9 °F /  6.1 °C 40.5 °F /  4.7 °C 29.23 in /  989.7 hPa SSW 9.0 mph /  14.5 km/h 16.0 mph /  25.7 km/h 91 % 0.00 in /  0 mm 0 W/m2
06:00 42.8 °F /  6 °C 40.4 °F /  4.7 °C 29.22 in /  989.4 hPa SSW 8.0 mph /  12.9 km/h 8.0 mph /  12.9 km/h 91 % 0.00 in /  0 mm 0 W/m2
06:05 42.7 °F /  5.9 °C 40.3 °F /  4.6 °C 29.22 in /  989.4 hPa SW 8.0 mph /  12.9 km/h 11.0 mph /  17.7 km/h 91 % 0.00 in /  0 mm 0 W/m2
06:10 42.6 °F /  5.9 °C 40.2 °F /  4.6 °C 29.22 in /  989.4 hPa WSW 8.0 mph /  12.9 km/h 8.0 mph /  12.9 km/h 91 % 0.00 in /  0 mm 0 W/m2
06:20 42.5 °F /  5.8 °C 40.1 °F /  4.5 °C 29.21 in /  989.1 hPa SSE 6.0 mph /  9.7 km/h 12.0 mph /  19.3 km/h 91 % 0.00 in /  0 mm 0 W/m2
06:25 42.4 °F /  5.8 °C 40.0 °F /  4.4 °C 29.21 in /  989.1 hPa South 4.0 mph /  6.4 km/h 12.0 mph /  19.3 km/h 91 % 0.00 in /  0 mm 0 W/m2
06:30 42.3 °F /  5.7 °C 39.9 °F /  4.4 °C 29.21 in /  989.1 hPa South 5.0 mph /  8 km/h 5.0 mph /  8 km/h 91 % 0.00 in /  0 mm 0 W/m2
06:35 42.2 °F /  5.7 °C 39.8 °F /  4.3 °C 29.21 in /  989.1 hPa SSW 6.0 mph /  9.7 km/h 7.0 mph /  11.3 km/h 91 % 0.00 in /  0 mm 0 W/m2
06:40 42.0 °F /  5.6 °C 39.6 °F /  4.2 °C 29.20 in /  988.7 hPa South 6.0 mph /  9.7 km/h 12.0 mph /  19.3 km/h 91 % 0.00 in /  0 mm 0 W/m2
06:45 41.9 °F /  5.5 °C 39.5 °F /  4.2 °C 29.20 in /  988.7 hPa SSE 6.0 mph /  9.7 km/h 12.0 mph /  19.3 km/h 91 % 0.00 in /  0 mm 0 W/m2
06:55 41.7 °F /  5.4 °C 39.3 °F /  4.1 °C 29.20 in /  988.7 hPa SSE 6.0 mph /  9.7 km/h 12.0 mph /  19.3 km/h 91 % 0.00 in /  0 mm 0 W/m2
07:00 41.6 °F /  5.3 °C 39.2 °F /  4 °C 29.19 in /  988.4 hPa SSE 6.0 mph /  9.7 km/h 12.0 mph /  19.3 km/h 91 % 0.00 in /  0 mm 0 W/m2
07:05 41.6 °F /  5.3 °C 39.4 °F /  4.1 °C 29.19 in /  988.4 hPa SSW 6.0 mph /  9.7 km/h 12.0 mph /  19.3 km/h 92 % 0.00 in /  0 mm 5 W/m2
07:15 41.6 °F /  5.3 °C 39.4 °F /  4.1 °C 29.18 in /  988 hPa SSE 6.0 mph /  9.7 km/h 12.0 mph /  19.3 km/h 92 % 0.00 in /  0 mm 11 W/m2
07:20 41.7 °F /  5.4 °C 39.5 °F /  4.2 °C 29.18 in /  988 hPa South 7.0 mph /  11.3 km/h 7.0 mph /  11.3 km/h 92 % 0.00 in /  0 mm 16 W/m2
07:30 41.9 °F /  5.5 °C 39.7 °F /  4.3 °C 29.18 in /  988 hPa SSW 7.0 mph /  11.3 km/h 12.0 mph /  19.3 km/h 92 % 0.00 in /  0 mm 54 W/m2
07:35 42.1 °F /  5.6 °C 39.9 °F /  4.4 °C 29.18 in /  988 hPa SSW 7.0 mph /  11.3 km/h 12.0 mph /  19.3 km/h 92 % 0.00 in /  0 mm 35 W/m2
07:40 42.2 °F /  5.7 °C 39.8 °F /  4.3 °C 29.18 in /  988 hPa SW 8.0 mph /  12.9 km/h 12.0 mph /  19.3 km/h 91 % 0.00 in /  0 mm 32 W/m2
07:45 42.2 °F /  5.7 °C 39.8 °F /  4.3 °C 29.17 in /  987.7 hPa SW 7.0 mph /  11.3 km/h 12.0 mph /  19.3 km/h 91 % 0.00 in /  0 mm 42 W/m2
07:50 42.3 °F /  5.7 °C 39.6 °F /  4.2 °C 29.17 in /  987.7 hPa SSW 5.0 mph /  8 km/h 12.0 mph /  19.3 km/h 90 % 0.00 in /  0 mm 54 W/m2
08:00 42.4 °F /  5.8 °C 39.7 °F /  4.3 °C 29.17 in /  987.7 hPa SW 4.0 mph /  6.4 km/h 12.0 mph /  19.3 km/h 90 % 0.00 in /  0 mm 88 W/m2
08:05 42.5 °F /  5.8 °C 39.8 °F /  4.3 °C 29.17 in /  987.7 hPa SW 4.0 mph /  6.4 km/h 12.0 mph /  19.3 km/h 90 % 0.00 in /  0 mm 65 W/m2
08:10 42.6 °F /  5.9 °C 39.9 °F /  4.4 °C 29.16 in /  987.4 hPa SW 4.0 mph /  6.4 km/h 4.0 mph /  6.4 km/h 90 % 0.00 in /  0 mm 84 W/m2
08:15 42.8 °F /  6 °C 40.1 °F /  4.5 °C 29.16 in /  987.4 hPa West 4.0 mph /  6.4 km/h 5.0 mph /  8 km/h 90 % 0.00 in /  0 mm 148 W/m2
08:25 43.3 °F /  6.3 °C 40.6 °F /  4.8 °C 29.16 in /  987.4 hPa SSW 4.0 mph /  6.4 km/h 12.0 mph /  19.3 km/h 90 % 0.00 in /  0 mm 151 W/m2
08:35 43.5 °F /  6.4 °C 40.5 °F /  4.7 °C 29.15 in /  987 hPa SSW 6.0 mph /  9.7 km/h 6.0 mph /  9.7 km/h 89 % 0.00 in /  0 mm 69 W/m2
08:40 43.5 °F /  6.4 °C 40.5 °F /  4.7 °C 29.15 in /  987 hPa SW 6.0 mph /  9.7 km/h 12.0 mph /  19.3 km/h 89 % 0.00 in /  0 mm 49 W/m2
08:45 43.4 °F /  6.3 °C 40.1 °F /  4.5 °C 29.15 in /  987 hPa SSW 6.0 mph /  9.7 km/h 12.0 mph /  19.3 km/h 88 % 0.00 in /  0 mm 47 W/m2
08:50 43.3 °F /  6.3 °C 40.0 °F /  4.4 °C 29.15 in /  987 hPa SW 5.0 mph /  8 km/h 12.0 mph /  19.3 km/h 88 % 0.00 in /  0 mm 42 W/m2
08:55 43.3 °F /  6.3 °C 40.3 °F /  4.6 °C 29.15 in /  987 hPa SW 4.0 mph /  6.4 km/h 12.0 mph /  19.3 km/h 89 % 0.00 in /  0 mm 37 W/m2
09:00 43.3 °F /  6.3 °C 40.0 °F /  4.4 °C 29.15 in /  987 hPa SSW 4.0 mph /  6.4 km/h 12.0 mph /  19.3 km/h 88 % 0.00 in /  0 mm 25 W/m2
09:10 43.2 °F /  6.2 °C 39.9 °F /  4.4 °C 29.14 in /  986.7 hPa South 5.0 mph /  8 km/h 12.0 mph /  19.3 km/h 88 % 0.00 in /  0 mm 37 W/m2
09:15 43.1 °F /  6.2 °C 39.8 °F /  4.3 °C 29.14 in /  986.7 hPa South 8.0 mph /  12.9 km/h 12.0 mph /  19.3 km/h 88 % 0.00 in /  0 mm 37 W/m2
09:20 43.0 °F /  6.1 °C 39.7 °F /  4.3 °C 29.14 in /  986.7 hPa SW 8.0 mph /  12.9 km/h 8.0 mph /  12.9 km/h 88 % 0.00 in /  0 mm 32 W/m2
09:25 42.9 °F /  6.1 °C 39.6 °F /  4.2 °C 29.14 in /  986.7 hPa SSW 8.0 mph /  12.9 km/h 14.0 mph /  22.5 km/h 88 % 0.00 in /  0 mm 35 W/m2
09:30 42.7 °F /  5.9 °C 39.7 °F /  4.3 °C 29.13 in /  986.3 hPa South 8.0 mph /  12.9 km/h 12.0 mph /  19.3 km/h 89 % 0.00 in /  0 mm 39 W/m2
09:40 42.3 °F /  5.7 °C 39.3 °F /  4.1 °C 29.13 in /  986.3 hPa SW 8.0 mph /  12.9 km/h 12.0 mph /  19.3 km/h 89 % 0.00 in /  0 mm 42 W/m2
09:45 42.2 °F /  5.7 °C 39.5 °F /  4.2 °C 29.13 in /  986.3 hPa SW 8.0 mph /  12.9 km/h 12.0 mph /  19.3 km/h 90 % 0.00 in /  0 mm 58 W/m2
09:50 42.0 °F /  5.6 °C 39.3 °F /  4.1 °C 29.13 in /  986.3 hPa SW 7.0 mph /  11.3 km/h 12.0 mph /  19.3 km/h 90 % 0.00 in /  0 mm 70 W/m2
09:55 41.9 °F /  5.5 °C 39.2 °F /  4 °C 29.13 in /  986.3 hPa SSW 8.0 mph /  12.9 km/h 12.0 mph /  19.3 km/h 90 % 0.00 in /  0 mm 84 W/m2
10:00 41.9 °F /  5.5 °C 39.5 °F /  4.2 °C 29.13 in /  986.3 hPa SSW 7.0 mph /  11.3 km/h 7.0 mph /  11.3 km/h 91 % 0.00 in /  0 mm 69 W/m2
10:05 41.8 °F /  5.4 °C 39.4 °F /  4.1 °C 29.12 in /  986 hPa SW 7.0 mph /  11.3 km/h 12.0 mph /  19.3 km/h 91 % 0.00 in /  0 mm 98 W/m2
10:15 41.9 °F /  5.5 °C 39.7 °F /  4.3 °C 29.11 in /  985.7 hPa SW 4.0 mph /  6.4 km/h 12.0 mph /  19.3 km/h 92 % 0.00 in /  0 mm 118 W/m2
10:20 41.9 °F /  5.5 °C 39.7 °F /  4.3 °C 29.11 in /  985.7 hPa SSW 2.0 mph /  3.2 km/h 12.0 mph /  19.3 km/h 92 % 0.00 in /  0 mm 79 W/m2
10:25 41.9 °F /  5.5 °C 39.7 °F /  4.3 °C 29.10 in /  985.3 hPa SSW 3.0 mph /  4.8 km/h 12.0 mph /  19.3 km/h 92 % 0.00 in /  0 mm 137 W/m2
10:35 41.9 °F /  5.5 °C 39.7 °F /  4.3 °C 29.09 in /  985 hPa South 3.0 mph /  4.8 km/h 12.0 mph /  19.3 km/h 92 % 0.00 in /  0 mm 142 W/m2
10:40 41.9 °F /  5.5 °C 39.7 °F /  4.3 °C 29.09 in /  985 hPa SSW 3.0 mph /  4.8 km/h 12.0 mph /  19.3 km/h 92 % 0.00 in /  0 mm 190 W/m2
10:50 42.0 °F /  5.6 °C 39.8 °F /  4.3 °C 29.08 in /  984.6 hPa South 5.0 mph /  8 km/h 12.0 mph /  19.3 km/h 92 % 0.00 in /  0 mm 181 W/m2
10:55 42.2 °F /  5.7 °C 40.0 °F /  4.4 °C 29.09 in /  985 hPa SSW 5.0 mph /  8 km/h 12.0 mph /  19.3 km/h 92 % 0.00 in /  0 mm 98 W/m2
11:00 42.3 °F /  5.7 °C 39.9 °F /  4.4 °C 29.08 in /  984.6 hPa SSW 4.0 mph /  6.4 km/h 4.0 mph /  6.4 km/h 91 % 0.00 in /  0 mm 139 W/m2
11:05 42.2 °F /  5.7 °C 39.8 °F /  4.3 °C 29.08 in /  984.6 hPa SSW 2.0 mph /  3.2 km/h 12.0 mph /  19.3 km/h 91 % 0.00 in /  0 mm 127 W/m2
11:10 42.3 °F /  5.7 °C 39.9 °F /  4.4 °C 29.08 in /  984.6 hPa SSW 3.0 mph /  4.8 km/h 3.0 mph /  4.8 km/h 91 % 0.00 in /  0 mm 114 W/m2
11:20 42.5 °F /  5.8 °C 40.1 °F /  4.5 °C 29.07 in /  984.3 hPa South 2.0 mph /  3.2 km/h 12.0 mph /  19.3 km/h 91 % 0.00 in /  0 mm 56 W/m2
11:25 42.5 °F /  5.8 °C 39.8 °F /  4.3 °C 29.07 in /  984.3 hPa South 3.0 mph /  4.8 km/h 12.0 mph /  19.3 km/h 90 % 0.00 in /  0 mm 90 W/m2
11:30 42.5 °F /  5.8 °C 39.8 °F /  4.3 °C 29.07 in /  984.3 hPa South 2.0 mph /  3.2 km/h 12.0 mph /  19.3 km/h 90 % 0.00 in /  0 mm 128 W/m2
11:35 42.6 °F /  5.9 °C 39.9 °F /  4.4 °C 29.06 in /  984 hPa SSE 2.0 mph /  3.2 km/h 12.0 mph /  19.3 km/h 90 % 0.00 in /  0 mm 118 W/m2
11:40 42.6 °F /  5.9 °C 39.9 °F /  4.4 °C 29.06 in /  984 hPa SSE 4.0 mph /  6.4 km/h 4.0 mph /  6.4 km/h 90 % 0.00 in /  0 mm 132 W/m2
11:50 42.8 °F /  6 °C 40.1 °F /  4.5 °C 29.05 in /  983.6 hPa SW 3.0 mph /  4.8 km/h 12.0 mph /  19.3 km/h 90 % 0.00 in /  0 mm 139 W/m2
11:55 42.8 °F /  6 °C 39.8 °F /  4.3 °C 29.05 in /  983.6 hPa SW 3.0 mph /  4.8 km/h 12.0 mph /  19.3 km/h 89 % 0.00 in /  0 mm 139 W/m2
12:05 43.1 °F /  6.2 °C 40.4 °F /  4.7 °C 29.04 in /  983.3 hPa SSE 3.0 mph /  4.8 km/h 12.0 mph /  19.3 km/h 90 % 0.00 in /  0 mm 70 W/m2
12:10 43.0 °F /  6.1 °C 40.0 °F /  4.4 °C 29.03 in /  983 hPa South 3.0 mph /  4.8 km/h 12.0 mph /  19.3 km/h 89 % 0.00 in /  0 mm 44 W/m2
12:15 42.8 °F /  6 °C 39.5 °F /  4.2 °C 29.03 in /  983 hPa South 4.0 mph /  6.4 km/h 12.0 mph /  19.3 km/h 88 % 0.00 in /  0 mm 56 W/m2
12:20 42.8 °F /  6 °C 39.8 °F /  4.3 °C 29.03 in /  983 hPa South 3.0 mph /  4.8 km/h 12.0 mph /  19.3 km/h 89 % 0.00 in /  0 mm 47 W/m2
12:30 42.6 °F /  5.9 °C 39.9 °F /  4.4 °C 29.02 in /  982.6 hPa SSW 4.0 mph /  6.4 km/h 12.0 mph /  19.3 km/h 90 % 0.00 in /  0 mm 72 W/m2
12:35 42.6 °F /  5.9 °C 39.9 °F /  4.4 °C 29.01 in /  982.3 hPa SSE 4.0 mph /  6.4 km/h 12.0 mph /  19.3 km/h 90 % 0.00 in /  0 mm 105 W/m2
12:40 42.6 °F /  5.9 °C 40.2 °F /  4.6 °C 29.01 in /  982.3 hPa SSE 4.0 mph /  6.4 km/h 12.0 mph /  19.3 km/h 91 % 0.00 in /  0 mm 93 W/m2
12:45 42.5 °F /  5.8 °C 40.1 °F /  4.5 °C 29.01 in /  982.3 hPa SSE 5.0 mph /  8 km/h 12.0 mph /  19.3 km/h 91 % 0.00 in /  0 mm 72 W/m2
12:50 42.3 °F /  5.7 °C 39.9 °F /  4.4 °C 29.01 in /  982.3 hPa SSW 6.0 mph /  9.7 km/h 12.0 mph /  19.3 km/h 91 % 0.00 in /  0 mm 70 W/m2
13:00 42.1 °F /  5.6 °C 39.7 °F /  4.3 °C 29.00 in /  981.9 hPa SSE 6.0 mph /  9.7 km/h 6.0 mph /  9.7 km/h 91 % 0.00 in /  0 mm 76 W/m2
13:05 42.1 °F /  5.6 °C 39.9 °F /  4.4 °C 29.00 in /  981.9 hPa SSE 6.0 mph /  9.7 km/h 12.0 mph /  19.3 km/h 92 % 0.00 in /  0 mm 220 W/m2
13:15 42.3 °F /  5.7 °C 40.1 °F /  4.5 °C 28.99 in /  981.6 hPa South 4.0 mph /  6.4 km/h 12.0 mph /  19.3 km/h 92 % 0.00 in /  0 mm 223 W/m2
13:20 42.3 °F /  5.7 °C 40.1 °F /  4.5 °C 28.98 in /  981.3 hPa SSE 4.0 mph /  6.4 km/h 12.0 mph /  19.3 km/h 92 % 0.00 in /  0 mm 225 W/m2
13:25 42.4 °F /  5.8 °C 40.0 °F /  4.4 °C 28.98 in /  981.3 hPa SSE 4.0 mph /  6.4 km/h 12.0 mph /  19.3 km/h 91 % 0.00 in /  0 mm 207 W/m2
13:35 42.6 °F /  5.9 °C 39.9 °F /  4.4 °C 28.98 in /  981.3 hPa SSW 4.0 mph /  6.4 km/h 12.0 mph /  19.3 km/h 90 % 0.00 in /  0 mm 258 W/m2
13:40 42.8 °F /  6 °C 40.1 °F /  4.5 °C 28.97 in /  980.9 hPa South 4.0 mph /  6.4 km/h 12.0 mph /  19.3 km/h 90 % 0.00 in /  0 mm 345 W/m2
13:45 43.1 °F /  6.2 °C 40.4 °F /  4.7 °C 28.97 in /  980.9 hPa South 4.0 mph /  6.4 km/h 12.0 mph /  19.3 km/h 90 % 0.00 in /  0 mm 508 W/m2
13:50 43.7 °F /  6.5 °C 41.2 °F /  5.1 °C 28.96 in /  980.6 hPa South 3.0 mph /  4.8 km/h 12.0 mph /  19.3 km/h 91 % 0.00 in /  0 mm 441 W/m2
13:55 44.2 °F /  6.8 °C 41.5 °F /  5.3 °C 28.96 in /  980.6 hPa SE 3.0 mph /  4.8 km/h 12.0 mph /  19.3 km/h 90 % 0.00 in /  0 mm 218 W/m2
14:00 44.4 °F /  6.9 °C 41.7 °F /  5.4 °C 28.97 in /  980.9 hPa South 2.0 mph /  3.2 km/h 12.0 mph /  19.3 km/h 90 % 0.00 in /  0 mm 214 W/m2
14:10 44.2 °F /  6.8 °C 41.2 °F /  5.1 °C 28.96 in /  980.6 hPa SSW 3.0 mph /  4.8 km/h 12.0 mph /  19.3 km/h 89 % 0.00 in /  0 mm 158 W/m2
14:15 44.0 °F /  6.7 °C 40.7 °F /  4.8 °C 28.96 in /  980.6 hPa SSW 4.0 mph /  6.4 km/h 12.0 mph /  19.3 km/h 88 % 0.00 in /  0 mm 160 W/m2
14:20 43.9 °F /  6.6 °C 40.9 °F /  4.9 °C 28.96 in /  980.6 hPa SSE 4.0 mph /  6.4 km/h 12.0 mph /  19.3 km/h 89 % 0.00 in /  0 mm 109 W/m2
14:30 43.5 °F /  6.4 °C 40.5 °F /  4.7 °C 28.95 in /  980.2 hPa SE 5.0 mph /  8 km/h 12.0 mph /  19.3 km/h 89 % 0.00 in /  0 mm 58 W/m2
14:35 43.3 °F /  6.3 °C 40.6 °F /  4.8 °C 28.95 in /  980.2 hPa South 5.0 mph /  8 km/h 12.0 mph /  19.3 km/h 90 % 0.00 in /  0 mm 44 W/m2
14:45 43.4 °F /  6.3 °C 40.9 °F /  4.9 °C 28.94 in /  979.9 hPa SSW 3.0 mph /  4.8 km/h 12.0 mph /  19.3 km/h 91 % 0.00 in /  0 mm 202 W/m2
14:50 43.2 °F /  6.2 °C 40.8 °F /  4.9 °C 28.94 in /  979.9 hPa South 3.0 mph /  4.8 km/h 12.0 mph /  19.3 km/h 91 % 0.00 in /  0 mm 81 W/m2
14:55 43.0 °F /  6.1 °C 40.6 °F /  4.8 °C 28.94 in /  979.9 hPa SSW 4.0 mph /  6.4 km/h 12.0 mph /  19.3 km/h 91 % 0.00 in /  0 mm 56 W/m2
15:00 42.9 °F /  6.1 °C 40.5 °F /  4.7 °C 28.94 in /  979.9 hPa SSW 3.0 mph /  4.8 km/h 3.0 mph /  4.8 km/h 91 % 0.00 in /  0 mm 53 W/m2
15:05 42.7 °F /  5.9 °C 40.3 °F /  4.6 °C 28.94 in /  979.9 hPa SSW 1.0 mph /  1.6 km/h 12.0 mph /  19.3 km/h 91 % 0.00 in /  0 mm 74 W/m2
15:15 42.7 °F /  5.9 °C 40.5 °F /  4.7 °C 28.94 in /  979.9 hPa SSW 1.0 mph /  1.6 km/h 12.0 mph /  19.3 km/h 92 % 0.00 in /  0 mm 56 W/m2
15:20 42.8 °F /  6 °C 40.6 °F /  4.8 °C 28.94 in /  979.9 hPa SSW 1.0 mph /  1.6 km/h 12.0 mph /  19.3 km/h 92 % 0.00 in /  0 mm 49 W/m2
15:25 42.8 °F /  6 °C 40.6 °F /  4.8 °C 28.93 in /  979.6 hPa SSW 2.0 mph /  3.2 km/h 12.0 mph /  19.3 km/h 92 % 0.00 in /  0 mm 42 W/m2
15:30 42.8 °F /  6 °C 40.6 °F /  4.8 °C 28.93 in /  979.6 hPa SW 3.0 mph /  4.8 km/h 12.0 mph /  19.3 km/h 92 % 0.00 in /  0 mm 49 W/m2
15:35 42.7 °F /  5.9 °C 40.5 °F /  4.7 °C 28.93 in /  979.6 hPa SW 4.0 mph /  6.4 km/h 12.0 mph /  19.3 km/h 92 % 0.00 in /  0 mm 33 W/m2
15:40 42.5 °F /  5.8 °C 40.1 °F /  4.5 °C 28.93 in /  979.6 hPa SW 6.0 mph /  9.7 km/h 12.0 mph /  19.3 km/h 91 % 0.00 in /  0 mm 12 W/m2
15:50 41.4 °F /  5.2 °C 38.4 °F /  3.6 °C 28.94 in /  979.9 hPa West 11.0 mph /  17.7 km/h 11.0 mph /  17.7 km/h 89 % 0.00 in /  0 mm 23 W/m2
15:55 41.0 °F /  5 °C 38.3 °F /  3.5 °C 28.93 in /  979.6 hPa West 10.0 mph /  16.1 km/h 12.0 mph /  19.3 km/h 90 % 0.00 in /  0 mm 32 W/m2
16:05 40.4 °F /  4.7 °C 38.0 °F /  3.3 °C 28.93 in /  979.6 hPa West 8.0 mph /  12.9 km/h 12.0 mph /  19.3 km/h 91 % 0.00 in /  0 mm 33 W/m2
16:10 40.2 °F /  4.6 °C 38.1 °F /  3.4 °C 28.93 in /  979.6 hPa WNW 8.0 mph /  12.9 km/h 8.0 mph /  12.9 km/h 92 % 0.00 in /  0 mm 46 W/m2
16:15 40.1 °F /  4.5 °C 38.0 °F /  3.3 °C 28.93 in /  979.6 hPa WSW 6.0 mph /  9.7 km/h 12.0 mph /  19.3 km/h 92 % 0.00 in /  0 mm 56 W/m2
16:25 40.0 °F /  4.4 °C 37.9 °F /  3.3 °C 28.93 in /  979.6 hPa WNW 6.0 mph /  9.7 km/h 12.0 mph /  19.3 km/h 92 % 0.00 in /  0 mm 56 W/m2
16:30 39.9 °F /  4.4 °C 37.8 °F /  3.2 °C 28.93 in /  979.6 hPa WNW 7.0 mph /  11.3 km/h 12.0 mph /  19.3 km/h 92 % 0.00 in /  0 mm 53 W/m2
16:35 39.9 °F /  4.4 °C 37.8 °F /  3.2 °C 28.93 in /  979.6 hPa WNW 6.0 mph /  9.7 km/h 12.0 mph /  19.3 km/h 92 % 0.00 in /  0 mm 51 W/m2
16:40 39.9 °F /  4.4 °C 37.8 °F /  3.2 °C 28.93 in /  979.6 hPa WNW 4.0 mph /  6.4 km/h 4.0 mph /  6.4 km/h 92 % 0.00 in /  0 mm 47 W/m2
16:45 39.9 °F /  4.4 °C 38.0 °F /  3.3 °C 28.93 in /  979.6 hPa WNW 2.0 mph /  3.2 km/h 12.0 mph /  19.3 km/h 93 % 0.00 in /  0 mm 32 W/m2
16:55 40.1 °F /  4.5 °C 38.2 °F /  3.4 °C 28.94 in /  979.9 hPa West 3.0 mph /  4.8 km/h 6.0 mph /  9.7 km/h 93 % 0.00 in /  0 mm 0 W/m2
17:00 39.7 °F /  4.3 °C 37.6 °F /  3.1 °C 28.94 in /  979.9 hPa West 7.0 mph /  11.3 km/h 20.0 mph /  32.2 km/h 92 % 0.00 in /  0 mm 5 W/m2
17:05 39.0 °F /  3.9 °C 36.6 °F /  2.6 °C 28.94 in /  979.9 hPa WNW 12.0 mph /  19.3 km/h 20.0 mph /  32.2 km/h 91 % 0.00 in /  0 mm 5 W/m2
17:10 38.6 °F /  3.7 °C 36.5 °F /  2.5 °C 28.94 in /  979.9 hPa West 12.0 mph /  19.3 km/h 12.0 mph /  19.3 km/h 92 % 0.00 in /  0 mm 0 W/m2
17:20 38.3 °F /  3.5 °C 36.5 °F /  2.5 °C 28.94 in /  979.9 hPa West 9.0 mph /  14.5 km/h 9.0 mph /  14.5 km/h 93 % 0.04 in /  1.02 mm 7 W/m2
17:25 37.9 °F /  3.3 °C 36.1 °F /  2.3 °C 28.94 in /  979.9 hPa NW 9.0 mph /  14.5 km/h 12.0 mph /  19.3 km/h 93 % 0.04 in /  1.02 mm 46 W/m2
17:35 37.4 °F /  3 °C 35.6 °F /  2 °C 28.94 in /  979.9 hPa WNW 8.0 mph /  12.9 km/h 12.0 mph /  19.3 km/h 93 % 0.06 in /  1.52 mm 23 W/m2
17:40 37.3 °F /  2.9 °C 35.5 °F /  1.9 °C 28.94 in /  979.9 hPa West 7.0 mph /  11.3 km/h 12.0 mph /  19.3 km/h 93 % 0.04 in /  1.02 mm 5 W/m2
17:45 37.3 °F /  2.9 °C 35.7 °F /  2.1 °C 28.94 in /  979.9 hPa WNW 8.0 mph /  12.9 km/h 12.0 mph /  19.3 km/h 94 % 0.00 in /  0 mm 0 W/m2
17:50 37.3 °F /  2.9 °C 35.7 °F /  2.1 °C 28.94 in /  979.9 hPa West 6.0 mph /  9.7 km/h 6.0 mph /  9.7 km/h 94 % 0.00 in /  0 mm 0 W/m2
17:55 37.3 °F /  2.9 °C 35.7 °F /  2.1 °C 28.94 in /  979.9 hPa West 4.0 mph /  6.4 km/h 12.0 mph /  19.3 km/h 94 % 0.00 in /  0 mm 0 W/m2
18:05 37.3 °F /  2.9 °C 35.7 °F /  2.1 °C 28.94 in /  979.9 hPa West 3.0 mph /  4.8 km/h 4.0 mph /  6.4 km/h 94 % 0.00 in /  0 mm 0 W/m2
18:10 37.3 °F /  2.9 °C 35.7 °F /  2.1 °C 28.94 in /  979.9 hPa West 2.0 mph /  3.2 km/h 12.0 mph /  19.3 km/h 94 % 0.00 in /  0 mm 0 W/m2
18:15 37.2 °F /  2.9 °C 35.6 °F /  2 °C 28.94 in /  979.9 hPa West 2.0 mph /  3.2 km/h 12.0 mph /  19.3 km/h 94 % 0.00 in /  0 mm 0 W/m2
18:20 37.2 °F /  2.9 °C 35.6 °F /  2 °C 28.94 in /  979.9 hPa West 2.0 mph /  3.2 km/h 2.0 mph /  3.2 km/h 94 % 0.00 in /  0 mm 0 W/m2
18:25 37.1 °F /  2.8 °C 35.5 °F /  1.9 °C 28.94 in /  979.9 hPa West 1.0 mph /  1.6 km/h 8.0 mph /  12.9 km/h 94 % 0.00 in /  0 mm 0 W/m2
18:30 37.0 °F /  2.8 °C 35.4 °F /  1.9 °C 28.94 in /  979.9 hPa West 3.0 mph /  4.8 km/h 12.0 mph /  19.3 km/h 94 % 0.00 in /  0 mm 0 W/m2
18:35 36.9 °F /  2.7 °C 35.3 °F /  1.8 °C 28.94 in /  979.9 hPa WSW 6.0 mph /  9.7 km/h 13.0 mph /  20.9 km/h 94 % 0.00 in /  0 mm 0 W/m2
18:40 36.9 °F /  2.7 °C 35.1 °F /  1.7 °C 28.95 in /  980.2 hPa West 9.0 mph /  14.5 km/h 12.0 mph /  19.3 km/h 93 % 0.00 in /  0 mm 0 W/m2
18:45 36.9 °F /  2.7 °C 35.1 °F /  1.7 °C 28.94 in /  979.9 hPa West 9.0 mph /  14.5 km/h 12.0 mph /  19.3 km/h 93 % 0.00 in /  0 mm 0 W/m2
18:50 37.0 °F /  2.8 °C 35.2 °F /  1.8 °C 28.94 in /  979.9 hPa West 8.0 mph /  12.9 km/h 12.0 mph /  19.3 km/h 93 % 0.00 in /  0 mm 0 W/m2
18:55 37.0 °F /  2.8 °C 34.9 °F /  1.6 °C 28.94 in /  979.9 hPa WSW 8.0 mph /  12.9 km/h 12.0 mph /  19.3 km/h 92 % 0.00 in /  0 mm 0 W/m2
19:05 37.0 °F /  2.8 °C 34.9 °F /  1.6 °C 28.94 in /  979.9 hPa WSW 9.0 mph /  14.5 km/h 12.0 mph /  19.3 km/h 92 % 0.00 in /  0 mm 0 W/m2
19:10 37.0 °F /  2.8 °C 34.9 °F /  1.6 °C 28.94 in /  979.9 hPa WSW 9.0 mph /  14.5 km/h 9.0 mph /  14.5 km/h 92 % 0.00 in /  0 mm 0 W/m2
19:15 36.9 °F /  2.7 °C 34.8 °F /  1.6 °C 28.94 in /  979.9 hPa West 8.0 mph /  12.9 km/h 11.0 mph /  17.7 km/h 92 % 0.00 in /  0 mm 0 W/m2
19:20 36.9 °F /  2.7 °C 34.5 °F /  1.4 °C 28.94 in /  979.9 hPa West 9.0 mph /  14.5 km/h 9.0 mph /  14.5 km/h 91 % 0.00 in /  0 mm 0 W/m2
19:30 36.8 °F /  2.7 °C 34.4 °F /  1.3 °C 28.94 in /  979.9 hPa West 8.0 mph /  12.9 km/h 8.0 mph /  12.9 km/h 91 % 0.00 in /  0 mm 0 W/m2
19:35 36.8 °F /  2.7 °C 34.4 °F /  1.3 °C 28.95 in /  980.2 hPa West 7.0 mph /  11.3 km/h 12.0 mph /  19.3 km/h 91 % 0.00 in /  0 mm 0 W/m2
19:45 36.7 °F /  2.6 °C 34.3 °F /  1.3 °C 28.95 in /  980.2 hPa WSW 6.0 mph /  9.7 km/h 12.0 mph /  19.3 km/h 91 % 0.00 in /  0 mm 0 W/m2
19:50 36.6 °F /  2.6 °C 34.2 °F /  1.2 °C 28.95 in /  980.2 hPa West 6.0 mph /  9.7 km/h 12.0 mph /  19.3 km/h 91 % 0.00 in /  0 mm 0 W/m2
19:55 36.7 °F /  2.6 °C 34.3 °F /  1.3 °C 28.95 in /  980.2 hPa WSW 7.0 mph /  11.3 km/h 12.0 mph /  19.3 km/h 91 % 0.00 in /  0 mm 0 W/m2
20:00 36.8 °F /  2.7 °C 34.4 °F /  1.3 °C 28.95 in /  980.2 hPa WSW 8.0 mph /  12.9 km/h 8.0 mph /  12.9 km/h 91 % 0.00 in /  0 mm 0 W/m2
20:05 36.9 °F /  2.7 °C 34.5 °F /  1.4 °C 28.95 in /  980.2 hPa WSW 8.0 mph /  12.9 km/h 12.0 mph /  19.3 km/h 91 % 0.00 in /  0 mm 0 W/m2
20:15 37.0 °F /  2.8 °C 34.6 °F /  1.4 °C 28.96 in /  980.6 hPa West 8.0 mph /  12.9 km/h 12.0 mph /  19.3 km/h 91 % 0.00 in /  0 mm 0 W/m2
20:20 37.0 °F /  2.8 °C 34.6 °F /  1.4 °C 28.96 in /  980.6 hPa West 9.0 mph /  14.5 km/h 12.0 mph /  19.3 km/h 91 % 0.00 in /  0 mm 0 W/m2
20:25 36.9 °F /  2.7 °C 34.5 °F /  1.4 °C 28.96 in /  980.6 hPa West 8.0 mph /  12.9 km/h 12.0 mph /  19.3 km/h 91 % 0.00 in /  0 mm 0 W/m2
20:30 37.0 °F /  2.8 °C 34.9 °F /  1.6 °C 28.96 in /  980.6 hPa WSW 7.0 mph /  11.3 km/h 7.0 mph /  11.3 km/h 92 % 0.00 in /  0 mm 0 W/m2
20:35 37.0 °F /  2.8 °C 34.9 °F /  1.6 °C 28.96 in /  980.6 hPa West 8.0 mph /  12.9 km/h 9.0 mph /  14.5 km/h 92 % 0.00 in /  0 mm 0 W/m2
20:40 37.0 °F /  2.8 °C 34.9 °F /  1.6 °C 28.96 in /  980.6 hPa West 11.0 mph /  17.7 km/h 12.0 mph /  19.3 km/h 92 % 0.00 in /  0 mm 0 W/m2
20:50 36.8 °F /  2.7 °C 34.4 °F /  1.3 °C 28.96 in /  980.6 hPa West 9.0 mph /  14.5 km/h 9.0 mph /  14.5 km/h 91 % 0.00 in /  0 mm 0 W/m2
20:55 36.6 °F /  2.6 °C 34.5 °F /  1.4 °C 28.96 in /  980.6 hPa WSW 7.0 mph /  11.3 km/h 12.0 mph /  19.3 km/h 92 % 0.00 in /  0 mm 0 W/m2
21:00 36.5 °F /  2.5 °C 34.4 °F /  1.3 °C 28.96 in /  980.6 hPa West 6.0 mph /  9.7 km/h 12.0 mph /  19.3 km/h 92 % 0.00 in /  0 mm 0 W/m2
21:05 36.3 °F /  2.4 °C 34.2 °F /  1.2 °C 28.96 in /  980.6 hPa West 5.0 mph /  8 km/h 12.0 mph /  19.3 km/h 92 % 0.00 in /  0 mm 0 W/m2
21:10 36.1 °F /  2.3 °C 34.0 °F /  1.1 °C 28.96 in /  980.6 hPa West 5.0 mph /  8 km/h 12.0 mph /  19.3 km/h 92 % 0.00 in /  0 mm 0 W/m2
21:20 35.9 °F /  2.2 °C 33.8 °F /  1 °C 28.96 in /  980.6 hPa WNW 6.0 mph /  9.7 km/h 12.0 mph /  19.3 km/h 92 % 0.00 in /  0 mm 0 W/m2
21:25 35.8 °F /  2.1 °C 33.7 °F /  0.9 °C 28.96 in /  980.6 hPa West 7.0 mph /  11.3 km/h 12.0 mph /  19.3 km/h 92 % 0.00 in /  0 mm 0 W/m2
21:35 35.7 °F /  2.1 °C 33.6 °F /  0.9 °C 28.97 in /  980.9 hPa WNW 6.0 mph /  9.7 km/h 12.0 mph /  19.3 km/h 92 % 0.00 in /  0 mm 0 W/m2
21:40 35.6 °F /  2 °C 33.5 °F /  0.8 °C 28.97 in /  980.9 hPa WNW 6.0 mph /  9.7 km/h 12.0 mph /  19.3 km/h 92 % 0.00 in /  0 mm 0 W/m2
21:45 35.5 °F /  1.9 °C 33.4 °F /  0.8 °C 28.96 in /  980.6 hPa West 6.0 mph /  9.7 km/h 12.0 mph /  19.3 km/h 92 % 0.00 in /  0 mm 0 W/m2
21:55 35.3 °F /  1.8 °C 33.2 °F /  0.7 °C 28.96 in /  980.6 hPa WNW 4.0 mph /  6.4 km/h 12.0 mph /  19.3 km/h 92 % 0.00 in /  0 mm 0 W/m2
22:00 35.2 °F /  1.8 °C 33.1 °F /  0.6 °C 28.96 in /  980.6 hPa West 3.0 mph /  4.8 km/h 12.0 mph /  19.3 km/h 92 % 0.00 in /  0 mm 0 W/m2
22:05 35.1 °F /  1.7 °C 33.3 °F /  0.7 °C 28.96 in /  980.6 hPa WNW 4.0 mph /  6.4 km/h 12.0 mph /  19.3 km/h 93 % 0.00 in /  0 mm 0 W/m2
22:10 35.0 °F /  1.7 °C 33.2 °F /  0.7 °C 28.96 in /  980.6 hPa West 5.0 mph /  8 km/h 12.0 mph /  19.3 km/h 93 % 0.00 in /  0 mm 0 W/m2
22:15 34.9 °F /  1.6 °C 33.1 °F /  0.6 °C 28.96 in /  980.6 hPa WNW 5.0 mph /  8 km/h 12.0 mph /  19.3 km/h 93 % 0.00 in /  0 mm 0 W/m2
22:20 34.9 °F /  1.6 °C 33.1 °F /  0.6 °C 28.96 in /  980.6 hPa WNW 5.0 mph /  8 km/h 5.0 mph /  8 km/h 93 % 0.00 in /  0 mm 0 W/m2
22:30 34.9 °F /  1.6 °C 33.1 °F /  0.6 °C 28.97 in /  980.9 hPa West 4.0 mph /  6.4 km/h 4.0 mph /  6.4 km/h 93 % 0.00 in /  0 mm 0 W/m2
22:35 34.7 °F /  1.5 °C 32.9 °F /  0.5 °C 28.97 in /  980.9 hPa West 3.0 mph /  4.8 km/h 6.0 mph /  9.7 km/h 93 % 0.00 in /  0 mm 0 W/m2
22:40 34.6 °F /  1.4 °C 32.8 °F /  0.4 °C 28.96 in /  980.6 hPa West 4.0 mph /  6.4 km/h 12.0 mph /  19.3 km/h 93 % 0.00 in /  0 mm 0 W/m2
22:45 34.6 °F /  1.4 °C 32.8 °F /  0.4 °C 28.96 in /  980.6 hPa West 4.0 mph /  6.4 km/h 12.0 mph /  19.3 km/h 93 % 0.00 in /  0 mm 0 W/m2
22:50 34.5 °F /  1.4 °C 32.7 °F /  0.4 °C 28.96 in /  980.6 hPa West 3.0 mph /  4.8 km/h 3.0 mph /  4.8 km/h 93 % 0.00 in /  0 mm 0 W/m2
23:00 34.2 °F /  1.2 °C 32.1 °F /  0.1 °C 28.96 in /  980.6 hPa West 1.0 mph /  1.6 km/h 12.0 mph /  19.3 km/h 92 % 0.00 in /  0 mm 0 W/m2
23:05 34.0 °F /  1.1 °C 32.2 °F /  0.1 °C 28.96 in /  980.6 hPa West 1.0 mph /  1.6 km/h 12.0 mph /  19.3 km/h 93 % 0.00 in /  0 mm 0 W/m2
23:10 33.9 °F /  1.1 °C 32.1 °F /  0.1 °C 28.96 in /  980.6 hPa West 2.0 mph /  3.2 km/h 2.0 mph /  3.2 km/h 93 % 0.00 in /  0 mm 0 W/m2
23:15 33.8 °F /  1 °C 32.0 °F /  0 °C 28.96 in /  980.6 hPa West 2.0 mph /  3.2 km/h 12.0 mph /  19.3 km/h 93 % 0.00 in /  0 mm 0 W/m2
23:20 33.8 °F /  1 °C 32.0 °F /  0 °C 28.96 in /  980.6 hPa West 1.0 mph /  1.6 km/h 12.0 mph /  19.3 km/h 93 % 0.00 in /  0 mm 0 W/m2
23:25 33.8 °F /  1 °C 32.0 °F /  0 °C 28.96 in /  980.6 hPa West 2.0 mph /  3.2 km/h 12.0 mph /  19.3 km/h 93 % 0.00 in /  0 mm 0 W/m2
23:35 33.6 °F /  0.9 °C 31.8 °F /  -0.1 °C 28.97 in /  980.9 hPa Calm   12.0 mph /  19.3 km/h 93 % 0.00 in /  0 mm 0 W/m2
23:40 33.5 °F /  0.8 °C 31.7 °F /  -0.2 °C 28.97 in /  980.9 hPa West 1.0 mph /  1.6 km/h 12.0 mph /  19.3 km/h 93 % 0.00 in /  0 mm 0 W/m2
23:50 33.4 °F /  0.8 °C 31.9 °F /  -0.1 °C 28.97 in /  980.9 hPa West 2.0 mph /  3.2 km/h 2.0 mph /  3.2 km/h 94 % 0.00 in /  0 mm 0 W/m2
23:55 33.5 °F /  0.8 °C 32.0 °F /  0 °C 28.97 in /  980.9 hPa West 2.0 mph /  3.2 km/h 12.0 mph /  19.3 km/h 94 % 0.00 in /  0 mm 0 W/m2
Delerius-Weather
Compliments of Weather Underground - 2 mb

Data updates at regular intervals.